createdAt,value
2023-01-21T00:00:26.145Z,-4.71
2023-01-21T00:01:26.123Z,-4.59
2023-01-21T00:02:26.202Z,-4.53
2023-01-21T00:03:26.168Z,-4.69
2023-01-21T00:04:26.105Z,-4.67
2023-01-21T00:05:26.103Z,-4.77
2023-01-21T00:06:26.095Z,-4.73
2023-01-21T00:07:26.102Z,-4.69
2023-01-21T00:08:26.104Z,-4.75
2023-01-21T00:09:26.067Z,-4.71
2023-01-21T00:10:26.069Z,-4.73
2023-01-21T00:11:26.057Z,-4.95
2023-01-21T00:12:26.049Z,-4.78
2023-01-21T00:13:26.042Z,-4.87
2023-01-21T00:14:26.066Z,-4.85
2023-01-21T00:15:26.185Z,-4.84
2023-01-21T00:16:26.023Z,-4.91
2023-01-21T00:17:26.010Z,-4.96
2023-01-21T00:18:26.004Z,-4.85
2023-01-21T00:19:26.024Z,-4.85
2023-01-21T00:20:25.992Z,-4.99
2023-01-21T00:21:25.996Z,-4.89
2023-01-21T00:22:25.979Z,-4.85
2023-01-21T00:23:25.966Z,-4.87
2023-01-21T00:24:25.986Z,-4.92
2023-01-21T00:25:25.945Z,-4.73
2023-01-21T00:26:25.964Z,-4.63
2023-01-21T00:27:25.943Z,-4.55
2023-01-21T00:28:25.928Z,-4.45
2023-01-21T00:29:25.947Z,-4.50
2023-01-21T00:30:25.919Z,-4.28
2023-01-21T00:31:25.991Z,-4.45
2023-01-21T00:32:25.902Z,-4.39
2023-01-21T00:33:25.885Z,-4.43
2023-01-21T00:34:25.920Z,-4.42
2023-01-21T00:35:25.874Z,-4.48
2023-01-21T00:36:25.864Z,-4.48
2023-01-21T00:37:25.853Z,-4.53
2023-01-21T00:38:25.845Z,-4.50
2023-01-21T00:39:25.878Z,-4.53
2023-01-21T00:40:25.838Z,-4.48
2023-01-21T00:41:25.833Z,-4.50
2023-01-21T00:42:25.825Z,-4.60
2023-01-21T00:43:25.816Z,-4.50
2023-01-21T00:44:25.836Z,-4.43
2023-01-21T00:45:25.798Z,-4.46
2023-01-21T00:46:25.858Z,-4.35
2023-01-21T00:47:25.787Z,-4.42
2023-01-21T00:48:25.795Z,-4.31
2023-01-21T00:49:25.793Z,-4.35
2023-01-21T00:50:25.761Z,-4.34
2023-01-21T00:51:25.760Z,-4.34
2023-01-21T00:52:25.751Z,-4.39
2023-01-21T00:53:25.742Z,-4.34
2023-01-21T00:54:25.761Z,-4.38
2023-01-21T00:55:25.726Z,-4.43
2023-01-21T00:56:25.721Z,-4.45
2023-01-21T00:57:25.708Z,-4.50
2023-01-21T00:58:25.725Z,-4.55
2023-01-21T00:59:25.735Z,-4.59
2023-01-21T01:00:25.694Z,-4.57
2023-01-21T01:01:25.744Z,-4.48
2023-01-21T01:02:25.712Z,-4.52
2023-01-21T01:03:25.686Z,-4.57
2023-01-21T01:04:25.691Z,-4.55
2023-01-21T01:05:25.655Z,-4.55
2023-01-21T01:06:25.647Z,-4.61
2023-01-21T01:07:25.633Z,-4.63
2023-01-21T01:08:26.635Z,-4.64
2023-01-21T01:09:25.659Z,-4.82
2023-01-21T01:10:25.627Z,-4.89
2023-01-21T01:11:25.612Z,-4.85
2023-01-21T01:12:25.612Z,-5.02
2023-01-21T01:13:25.598Z,-5.14
2023-01-21T01:14:25.627Z,-5.14
2023-01-21T01:15:25.594Z,-5.17
2023-01-21T01:16:25.577Z,-5.21
2023-01-21T01:17:25.569Z,-5.25
2023-01-21T01:18:25.564Z,-5.38
2023-01-21T01:19:25.599Z,-5.38
2023-01-21T01:20:25.545Z,-5.33
2023-01-21T01:21:25.539Z,-5.47
2023-01-21T01:22:25.532Z,-5.35
2023-01-21T01:23:25.529Z,-5.46
2023-01-21T01:24:25.549Z,-5.43
2023-01-21T01:25:25.511Z,-5.49
2023-01-21T01:26:25.496Z,-5.49
2023-01-21T01:27:25.492Z,-5.43
2023-01-21T01:28:25.499Z,-5.43
2023-01-21T01:29:25.504Z,-5.43
2023-01-21T01:30:25.534Z,-5.47
2023-01-21T01:31:25.483Z,-5.47
2023-01-21T01:32:25.463Z,-5.45
2023-01-21T01:33:25.457Z,-5.46
2023-01-21T01:34:25.466Z,-5.47
2023-01-21T01:35:25.443Z,-5.49
2023-01-21T01:36:25.445Z,-5.53
2023-01-21T01:37:25.422Z,-5.60
2023-01-21T01:38:25.412Z,-5.57
2023-01-21T01:39:25.441Z,-5.53
2023-01-21T01:40:25.414Z,-5.56
2023-01-21T01:41:25.407Z,-5.64
2023-01-21T01:42:25.393Z,-5.64
2023-01-21T01:43:25.388Z,-5.63
2023-01-21T01:44:25.405Z,-5.81
2023-01-21T01:45:25.369Z,-5.68
2023-01-21T01:46:25.370Z,-5.75
2023-01-21T01:47:25.357Z,-5.72
2023-01-21T01:48:25.347Z,-5.74
2023-01-21T01:49:25.370Z,-5.85
2023-01-21T01:50:25.334Z,-5.78
2023-01-21T01:51:25.332Z,-5.89
2023-01-21T01:52:25.317Z,-5.85
2023-01-21T01:53:25.305Z,-5.90
2023-01-21T01:54:27.180Z,-5.84
2023-01-21T01:55:25.303Z,-5.92
2023-01-21T01:56:25.291Z,-5.92
2023-01-21T01:57:25.293Z,-5.90
2023-01-21T01:58:25.280Z,-5.96
2023-01-21T01:59:25.292Z,-6.10
2023-01-21T02:00:25.260Z,-6.05
2023-01-21T02:01:25.311Z,-6.05
2023-01-21T02:02:25.246Z,-6.10
2023-01-21T02:03:25.252Z,-6.11
2023-01-21T02:04:25.260Z,-6.07
2023-01-21T02:05:25.228Z,-6.10
2023-01-21T02:06:25.219Z,-6.18
2023-01-21T02:07:25.212Z,-6.00
2023-01-21T02:08:25.206Z,-5.99
2023-01-21T02:09:25.223Z,-5.95
2023-01-21T02:10:25.196Z,-5.96
2023-01-21T02:11:25.185Z,-5.99
2023-01-21T02:12:25.171Z,-5.89
2023-01-21T02:13:25.168Z,-5.95
2023-01-21T02:14:25.190Z,-5.89
2023-01-21T02:15:25.154Z,-5.90
2023-01-21T02:16:25.167Z,-5.84
2023-01-21T02:17:25.143Z,-5.76
2023-01-21T02:18:25.132Z,-5.72
2023-01-21T02:19:25.158Z,-5.61
2023-01-21T02:20:25.126Z,-5.60
2023-01-21T02:21:25.107Z,-5.51
2023-01-21T02:22:25.105Z,-5.58
2023-01-21T02:23:25.097Z,-5.35
2023-01-21T02:24:25.092Z,-5.40
2023-01-21T02:25:25.105Z,-5.35
2023-01-21T02:26:25.077Z,-5.28
2023-01-21T02:27:30.812Z,-5.39
2023-01-21T02:28:27.090Z,-5.24
2023-01-21T02:29:25.051Z,-5.25
2023-01-21T02:30:25.069Z,-5.24
2023-01-21T02:31:25.052Z,-5.29
2023-01-21T02:32:25.028Z,-5.35
2023-01-21T02:33:25.020Z,-5.25
2023-01-21T02:34:25.015Z,-5.27
2023-01-21T02:35:25.045Z,-5.27
2023-01-21T02:36:24.995Z,-5.24
2023-01-21T02:37:25.003Z,-5.33
2023-01-21T02:38:24.986Z,-5.13
2023-01-21T02:39:24.977Z,-5.17
2023-01-21T02:40:24.998Z,-5.17
2023-01-21T02:41:24.969Z,-5.09
2023-01-21T02:42:24.957Z,-5.17
2023-01-21T02:43:24.951Z,-5.21
2023-01-21T02:44:24.943Z,-5.09
2023-01-21T02:45:24.966Z,-5.08
2023-01-21T02:46:24.946Z,-5.08
2023-01-21T02:47:24.923Z,-5.05
2023-01-21T02:48:24.912Z,-5.10
2023-01-21T02:49:24.913Z,-5.17
2023-01-21T02:50:24.933Z,-5.14
2023-01-21T02:51:24.893Z,-5.22
2023-01-21T02:52:24.888Z,-5.19
2023-01-21T02:53:24.880Z,-5.19
2023-01-21T02:54:24.871Z,-5.21
2023-01-21T02:55:24.901Z,-5.21
2023-01-21T02:56:24.861Z,-5.22
2023-01-21T02:57:24.860Z,-5.14
2023-01-21T02:58:24.846Z,-5.25
2023-01-21T02:59:24.841Z,-5.27
2023-01-21T03:00:24.858Z,-5.22
2023-01-21T03:01:24.827Z,-5.36
2023-01-21T03:02:24.820Z,-5.39
2023-01-21T03:03:24.830Z,-5.35
2023-01-21T03:04:24.809Z,-5.29
2023-01-21T03:05:24.829Z,-5.35
2023-01-21T03:06:24.793Z,-5.31
2023-01-21T03:07:24.782Z,-5.24
2023-01-21T03:08:24.774Z,-5.24
2023-01-21T03:09:24.784Z,-5.22
2023-01-21T03:10:24.799Z,-5.18
2023-01-21T03:11:24.748Z,-5.22
2023-01-21T03:12:25.747Z,-5.14
2023-01-21T03:13:24.739Z,-5.08
2023-01-21T03:14:24.733Z,-5.09
2023-01-21T03:15:24.727Z,-5.13
2023-01-21T03:16:24.800Z,-5.09
2023-01-21T03:17:24.741Z,-5.00
2023-01-21T03:18:24.718Z,-4.98
2023-01-21T03:19:24.705Z,-5.05
2023-01-21T03:20:24.719Z,-4.89
2023-01-21T03:21:24.713Z,-5.00
2023-01-21T03:22:24.673Z,-4.95
2023-01-21T03:23:24.670Z,-4.88
2023-01-21T03:24:24.663Z,-4.84
2023-01-21T03:25:24.659Z,-4.88
2023-01-21T03:26:24.893Z,-4.91
2023-01-21T03:27:24.636Z,-4.82
2023-01-21T03:28:24.634Z,-4.98
2023-01-21T03:29:24.625Z,-4.89
2023-01-21T03:30:24.611Z,-5.00
2023-01-21T03:31:25.696Z,-4.92
2023-01-21T03:32:24.603Z,-4.92
2023-01-21T03:33:24.632Z,-4.87
2023-01-21T03:34:24.605Z,-5.03
2023-01-21T03:35:24.581Z,-4.91
2023-01-21T03:36:24.603Z,-4.95
2023-01-21T03:37:24.589Z,-4.99
2023-01-21T03:38:24.562Z,-4.96
2023-01-21T03:39:24.554Z,-5.13
2023-01-21T03:40:24.547Z,-5.09
2023-01-21T03:41:24.549Z,-5.02
2023-01-21T03:42:24.559Z,-5.06
2023-01-21T03:43:24.526Z,-5.00
2023-01-21T03:44:24.525Z,-5.02
2023-01-21T03:45:24.599Z,-5.17
2023-01-21T03:46:24.504Z,-5.18
2023-01-21T03:47:24.529Z,-5.18
2023-01-21T03:48:24.496Z,-5.24
2023-01-21T03:49:24.482Z,-5.17
2023-01-21T03:50:24.473Z,-5.05
2023-01-21T03:51:24.468Z,-5.08
2023-01-21T03:52:24.488Z,-5.06
2023-01-21T03:53:24.455Z,-5.17
2023-01-21T03:54:24.450Z,-5.21
2023-01-21T03:55:24.444Z,-5.24
2023-01-21T03:56:24.436Z,-5.14
2023-01-21T03:57:24.465Z,-5.24
2023-01-21T03:58:24.423Z,-5.18
2023-01-21T03:59:24.421Z,-5.22
2023-01-21T04:00:24.404Z,-5.22
2023-01-21T04:01:24.402Z,-5.33
2023-01-21T04:02:24.478Z,-5.36
2023-01-21T04:03:24.386Z,-5.31
2023-01-21T04:04:24.385Z,-5.22
2023-01-21T04:05:24.375Z,-5.28
2023-01-21T04:06:24.362Z,-5.36
2023-01-21T04:07:24.385Z,-5.31
2023-01-21T04:08:24.352Z,-5.40
2023-01-21T04:09:24.339Z,-5.46
2023-01-21T04:10:24.361Z,-5.60
2023-01-21T04:11:24.336Z,-5.53
2023-01-21T04:12:24.341Z,-5.58
2023-01-21T04:13:24.318Z,-5.75
2023-01-21T04:14:24.308Z,-5.72
2023-01-21T04:15:24.302Z,-5.56
2023-01-21T04:16:24.377Z,-5.76
2023-01-21T04:17:24.325Z,-5.74
2023-01-21T04:18:24.280Z,-5.71
2023-01-21T04:19:24.267Z,-5.74
2023-01-21T04:20:24.267Z,-5.58
2023-01-21T04:21:24.257Z,-5.60
2023-01-21T04:22:24.285Z,-5.56
2023-01-21T04:23:24.247Z,-5.47
2023-01-21T04:24:24.237Z,-5.56
2023-01-21T04:25:24.232Z,-5.56
2023-01-21T04:26:24.221Z,-5.58
2023-01-21T04:27:24.248Z,-5.54
2023-01-21T04:28:24.208Z,-5.49
2023-01-21T04:29:24.203Z,-5.47
2023-01-21T04:30:24.193Z,-5.46
2023-01-21T04:31:24.210Z,-5.38
2023-01-21T04:32:24.184Z,-5.40
2023-01-21T04:33:24.200Z,-5.31
2023-01-21T04:34:24.172Z,-5.31
2023-01-21T04:35:24.168Z,-5.22
2023-01-21T04:36:24.155Z,-5.24
2023-01-21T04:37:24.151Z,-5.21
2023-01-21T04:38:24.165Z,-5.17
2023-01-21T04:39:24.137Z,-5.13
2023-01-21T04:40:24.122Z,-5.10
2023-01-21T04:41:25.538Z,-5.05
2023-01-21T04:42:25.121Z,-5.02
2023-01-21T04:43:24.143Z,-4.96
2023-01-21T04:44:24.090Z,-5.02
2023-01-21T04:45:24.087Z,-4.89
2023-01-21T04:46:24.080Z,-4.98
2023-01-21T04:47:24.079Z,-4.84
2023-01-21T04:48:24.092Z,-4.89
2023-01-21T04:49:24.057Z,-4.92
2023-01-21T04:50:24.051Z,-4.87
2023-01-21T04:51:24.054Z,-4.87
2023-01-21T04:52:24.041Z,-4.71
2023-01-21T04:53:24.067Z,-4.75
2023-01-21T04:54:24.026Z,-4.64
2023-01-21T04:55:26.234Z,-4.64
2023-01-21T04:56:25.010Z,-4.66
2023-01-21T04:57:24.004Z,-4.61
2023-01-21T04:58:24.017Z,-4.50
2023-01-21T04:59:23.986Z,-4.61
2023-01-21T05:00:23.979Z,-4.46
2023-01-21T05:01:24.117Z,-4.52
2023-01-21T05:02:23.988Z,-4.60
2023-01-21T05:03:23.986Z,-4.52
2023-01-21T05:04:23.973Z,-4.59
2023-01-21T05:05:23.943Z,-4.52
2023-01-21T05:06:23.992Z,-4.71
2023-01-21T05:07:23.924Z,-4.67
2023-01-21T05:08:23.968Z,-4.63
2023-01-21T05:09:23.948Z,-4.69
2023-01-21T05:10:23.907Z,-4.66
2023-01-21T05:11:23.955Z,-4.69
2023-01-21T05:12:23.891Z,-4.67
2023-01-21T05:13:23.920Z,-4.70
2023-01-21T05:14:23.878Z,-4.69
2023-01-21T05:15:23.867Z,-4.69
2023-01-21T05:16:23.909Z,-4.69
2023-01-21T05:17:23.860Z,-4.69
2023-01-21T05:18:23.880Z,-4.73
2023-01-21T05:19:23.852Z,-4.67
2023-01-21T05:20:23.834Z,-4.71
2023-01-21T05:21:23.825Z,-4.55
2023-01-21T05:22:23.817Z,-4.46
2023-01-21T05:23:23.877Z,-4.50
2023-01-21T05:24:23.813Z,-4.53
2023-01-21T05:25:23.797Z,-4.53
2023-01-21T05:26:23.791Z,-4.52
2023-01-21T05:27:23.783Z,-4.61
2023-01-21T05:28:23.803Z,-4.50
2023-01-21T05:29:23.766Z,-4.46
2023-01-21T05:30:23.774Z,-4.38
2023-01-21T05:31:23.848Z,-4.52
2023-01-21T05:32:23.750Z,-4.48
2023-01-21T05:33:23.737Z,-4.42
2023-01-21T05:34:23.760Z,-4.52
2023-01-21T05:35:23.739Z,-4.39
2023-01-21T05:36:23.735Z,-4.43
2023-01-21T05:37:23.714Z,-4.30
2023-01-21T05:38:23.704Z,-4.35
2023-01-21T05:39:23.724Z,-4.49
2023-01-21T05:40:23.696Z,-4.41
2023-01-21T05:41:23.687Z,-4.31
2023-01-21T05:42:23.680Z,-4.34
2023-01-21T05:43:23.667Z,-4.24
2023-01-21T05:44:23.682Z,-4.28
2023-01-21T05:45:23.656Z,-4.21
2023-01-21T05:46:23.685Z,-4.22
2023-01-21T05:47:23.632Z,-4.20
2023-01-21T05:48:23.624Z,-4.10
2023-01-21T05:49:23.647Z,-4.10
2023-01-21T05:50:23.612Z,-4.02
2023-01-21T05:51:23.634Z,-4.02
2023-01-21T05:52:23.594Z,-4.09
2023-01-21T05:53:23.588Z,-3.92
2023-01-21T05:54:23.619Z,-3.91
2023-01-21T05:55:23.573Z,-3.83
2023-01-21T05:56:23.567Z,-3.82
2023-01-21T05:57:23.562Z,-3.82
2023-01-21T05:58:23.563Z,-3.83
2023-01-21T05:59:23.573Z,-3.80
2023-01-21T06:00:23.549Z,-3.78
2023-01-21T06:01:23.533Z,-3.69
2023-01-21T06:02:23.589Z,-3.70
2023-01-21T06:03:23.531Z,-3.74
2023-01-21T06:04:24.041Z,-3.63
2023-01-21T06:05:24.504Z,-3.63
2023-01-21T06:06:23.505Z,-3.74
2023-01-21T06:07:23.492Z,-3.78
2023-01-21T06:08:23.498Z,-3.78
2023-01-21T06:09:23.502Z,-3.70
2023-01-21T06:10:23.468Z,-3.80
2023-01-21T06:11:23.461Z,-3.75
2023-01-21T06:12:24.851Z,-3.77
2023-01-21T06:13:24.444Z,-3.83
2023-01-21T06:14:23.463Z,-3.82
2023-01-21T06:15:23.435Z,-3.80
2023-01-21T06:16:23.423Z,-3.85
2023-01-21T06:17:23.417Z,-3.99
2023-01-21T06:18:23.415Z,-3.86
2023-01-21T06:19:23.435Z,-3.80
2023-01-21T06:20:23.394Z,-3.93
2023-01-21T06:21:23.382Z,-3.78
2023-01-21T06:22:23.384Z,-3.86
2023-01-21T06:23:23.385Z,-3.80
2023-01-21T06:24:23.396Z,-3.86
2023-01-21T06:25:23.360Z,-3.88
2023-01-21T06:26:23.853Z,-3.80
2023-01-21T06:27:23.346Z,-3.93
2023-01-21T06:28:23.331Z,-3.80
2023-01-21T06:29:23.354Z,-3.91
2023-01-21T06:30:23.321Z,-3.83
2023-01-21T06:31:23.361Z,-3.89
2023-01-21T06:32:23.302Z,-3.96
2023-01-21T06:33:23.299Z,-3.99
2023-01-21T06:34:23.291Z,-3.96
2023-01-21T06:35:23.307Z,-3.96
2023-01-21T06:36:23.275Z,-3.93
2023-01-21T06:37:23.267Z,-3.86
2023-01-21T06:38:23.253Z,-3.85
2023-01-21T06:39:24.254Z,-3.83
2023-01-21T06:40:23.267Z,-3.86
2023-01-21T06:41:24.242Z,-3.91
2023-01-21T06:42:23.232Z,-3.80
2023-01-21T06:43:23.223Z,-3.91
2023-01-21T06:44:23.210Z,-3.85
2023-01-21T06:45:23.234Z,-3.85
2023-01-21T06:46:23.261Z,-3.78
2023-01-21T06:47:23.193Z,-3.83
2023-01-21T06:48:23.186Z,-3.80
2023-01-21T06:49:23.177Z,-3.72
2023-01-21T06:50:23.201Z,-3.74
2023-01-21T06:51:23.194Z,-3.75
2023-01-21T06:52:23.151Z,-3.91
2023-01-21T06:53:23.153Z,-3.86
2023-01-21T06:54:23.137Z,-3.86
2023-01-21T06:55:23.154Z,-3.85
2023-01-21T06:56:23.125Z,-3.92
2023-01-21T06:57:23.118Z,-3.88
2023-01-21T06:58:23.110Z,-3.92
2023-01-21T06:59:23.110Z,-3.82
2023-01-21T07:00:23.118Z,-3.98
2023-01-21T07:01:23.146Z,-3.99
2023-01-21T07:02:23.141Z,-3.98
2023-01-21T07:03:23.081Z,-3.99
2023-01-21T07:04:23.069Z,-4.07
2023-01-21T07:05:23.091Z,-3.93
2023-01-21T07:06:23.057Z,-4.07
2023-01-21T07:07:23.050Z,-4.04
2023-01-21T07:08:23.043Z,-4.07
2023-01-21T07:09:23.035Z,-4.06
2023-01-21T07:10:23.054Z,-4.04
2023-01-21T07:11:23.017Z,-4.02
2023-01-21T07:12:23.013Z,-4.14
2023-01-21T07:13:23.002Z,-4.04
2023-01-21T07:14:23.000Z,-4.02
2023-01-21T07:15:23.016Z,-4.16
2023-01-21T07:16:23.071Z,-4.04
2023-01-21T07:17:22.976Z,-3.95
2023-01-21T07:18:22.993Z,-4.10
2023-01-21T07:19:22.966Z,-4.13
2023-01-21T07:20:22.982Z,-4.10
2023-01-21T07:21:22.966Z,-4.06
2023-01-21T07:22:22.941Z,-4.02
2023-01-21T07:23:22.956Z,-3.92
2023-01-21T07:24:22.929Z,-3.95
2023-01-21T07:25:22.950Z,-3.96
2023-01-21T07:26:22.917Z,-3.91
2023-01-21T07:27:22.913Z,-3.99
2023-01-21T07:28:22.903Z,-3.88
2023-01-21T07:29:22.898Z,-4.03
2023-01-21T07:30:22.914Z,-4.03
2023-01-21T07:31:22.971Z,-3.93
2023-01-21T07:32:22.875Z,-3.92
2023-01-21T07:33:22.866Z,-3.98
2023-01-21T07:34:22.859Z,-4.02
2023-01-21T07:35:22.876Z,-4.07
2023-01-21T07:36:22.848Z,-4.06
2023-01-21T07:37:22.838Z,-4.03
2023-01-21T07:38:22.837Z,-4.02
2023-01-21T07:39:22.827Z,-3.96
2023-01-21T07:40:22.846Z,-3.93
2023-01-21T07:41:22.809Z,-3.93
2023-01-21T07:42:22.809Z,-3.85
2023-01-21T07:43:22.792Z,-3.80
2023-01-21T07:44:22.793Z,-3.80
2023-01-21T07:45:22.803Z,-3.85
2023-01-21T07:46:22.785Z,-3.89
2023-01-21T07:47:22.763Z,-3.75
2023-01-21T07:48:22.755Z,-3.74
2023-01-21T07:49:22.759Z,-3.70
2023-01-21T07:50:22.773Z,-3.72
2023-01-21T07:51:22.902Z,-3.70
2023-01-21T07:52:22.729Z,-3.80
2023-01-21T07:53:22.721Z,-3.77
2023-01-21T07:54:22.711Z,-3.70
2023-01-21T07:55:22.728Z,-3.70
2023-01-21T07:56:22.694Z,-3.70
2023-01-21T07:57:22.692Z,-3.69
2023-01-21T07:58:22.696Z,-3.66
2023-01-21T07:59:22.673Z,-3.74
2023-01-21T08:00:22.688Z,-3.70
2023-01-21T08:01:25.183Z,-3.70
2023-01-21T08:02:23.757Z,-3.63
2023-01-21T08:03:22.648Z,-3.64
2023-01-21T08:04:22.645Z,-3.67
2023-01-21T08:05:22.655Z,-3.78
2023-01-21T08:06:22.628Z,-3.72
2023-01-21T08:07:22.619Z,-3.74
2023-01-21T08:08:22.611Z,-3.66
2023-01-21T08:09:22.612Z,-3.64
2023-01-21T08:10:22.656Z,-3.59
2023-01-21T08:11:22.599Z,-3.61
2023-01-21T08:12:22.583Z,-3.55
2023-01-21T08:13:22.580Z,-3.58
2023-01-21T08:14:22.573Z,-3.54
2023-01-21T08:15:22.592Z,-3.54
2023-01-21T08:16:22.613Z,-3.49
2023-01-21T08:17:22.550Z,-3.52
2023-01-21T08:18:22.561Z,-3.49
2023-01-21T08:19:22.540Z,-3.41
2023-01-21T08:20:22.570Z,-3.34
2023-01-21T08:21:22.526Z,-3.37
2023-01-21T08:22:22.512Z,-3.25
2023-01-21T08:23:22.504Z,-3.16
2023-01-21T08:24:22.509Z,-3.25
2023-01-21T08:25:22.518Z,-3.22
2023-01-21T08:26:25.459Z,-3.20
2023-01-21T08:27:22.478Z,-3.19
2023-01-21T08:28:22.468Z,-3.20
2023-01-21T08:29:22.465Z,-3.19
2023-01-21T08:30:22.453Z,-3.12
2023-01-21T08:31:22.568Z,-3.07
2023-01-21T08:32:22.447Z,-3.07
2023-01-21T08:33:22.427Z,-2.98
2023-01-21T08:34:22.432Z,-2.95
2023-01-21T08:35:22.414Z,-3.04
2023-01-21T08:36:22.436Z,-2.89
2023-01-21T08:37:22.406Z,-2.95
2023-01-21T08:38:22.395Z,-2.88
2023-01-21T08:39:22.389Z,-2.94
2023-01-21T08:40:22.377Z,-2.89
2023-01-21T08:41:22.400Z,-2.71
2023-01-21T08:42:22.365Z,-2.73
2023-01-21T08:43:22.359Z,-2.65
2023-01-21T08:44:22.354Z,-2.71
2023-01-21T08:45:22.345Z,-2.74
2023-01-21T08:46:22.371Z,-2.63
2023-01-21T08:47:22.341Z,-2.63
2023-01-21T08:48:22.330Z,-2.59
2023-01-21T08:49:22.321Z,-2.56
2023-01-21T08:50:22.302Z,-2.58
2023-01-21T08:51:22.362Z,-2.60
2023-01-21T08:52:22.300Z,-2.53
2023-01-21T08:53:22.306Z,-2.59
2023-01-21T08:54:22.283Z,-2.65
2023-01-21T08:55:22.280Z,-2.65
2023-01-21T08:56:22.294Z,-2.58
2023-01-21T08:57:22.264Z,-2.58
2023-01-21T08:58:22.258Z,-2.52
2023-01-21T08:59:22.242Z,-2.38
2023-01-21T09:00:22.293Z,-2.35
2023-01-21T09:01:22.342Z,-2.52
2023-01-21T09:02:22.273Z,-2.50
2023-01-21T09:03:22.215Z,-2.41
2023-01-21T09:04:22.218Z,-2.25
2023-01-21T09:05:22.205Z,-2.19
2023-01-21T09:06:22.224Z,-2.07
2023-01-21T09:07:22.195Z,-2.01
2023-01-21T09:08:22.178Z,-1.87
2023-01-21T09:09:23.177Z,-1.86
2023-01-21T09:10:22.164Z,-1.83
2023-01-21T09:11:22.187Z,-1.80
2023-01-21T09:12:22.154Z,-1.68
2023-01-21T09:13:22.153Z,-1.66
2023-01-21T09:14:22.137Z,-1.69
2023-01-21T09:15:22.130Z,-1.69
2023-01-21T09:16:22.212Z,-1.58
2023-01-21T09:17:22.119Z,-1.53
2023-01-21T09:18:22.105Z,-1.58
2023-01-21T09:19:22.104Z,-1.53
2023-01-21T09:20:22.100Z,-1.61
2023-01-21T09:21:22.114Z,-1.48
2023-01-21T09:22:22.089Z,-1.48
2023-01-21T09:23:22.076Z,-1.38
2023-01-21T09:24:23.068Z,-1.43
2023-01-21T09:25:23.360Z,-1.25
2023-01-21T09:26:23.080Z,-1.30
2023-01-21T09:27:22.053Z,-1.22
2023-01-21T09:28:22.043Z,-1.27
2023-01-21T09:29:22.042Z,-1.14
2023-01-21T09:30:22.020Z,-1.17
2023-01-21T09:31:22.059Z,-1.22
2023-01-21T09:32:23.011Z,-1.12
2023-01-21T09:33:21.997Z,-1.27
2023-01-21T09:34:21.993Z,-1.23
2023-01-21T09:35:21.987Z,-1.17
2023-01-21T09:36:22.034Z,-1.26
2023-01-21T09:37:21.977Z,-1.17
2023-01-21T09:38:21.984Z,-1.19
2023-01-21T09:39:21.958Z,-1.25
2023-01-21T09:40:21.953Z,-1.17
2023-01-21T09:41:21.969Z,-1.27
2023-01-21T09:42:21.939Z,-1.19
2023-01-21T09:43:21.922Z,-1.27
2023-01-21T09:44:21.937Z,-1.14
2023-01-21T09:45:21.912Z,-1.19
2023-01-21T09:46:21.929Z,-1.26
2023-01-21T09:47:21.899Z,-1.22
2023-01-21T09:48:21.889Z,-1.23
2023-01-21T09:49:21.891Z,-1.19
2023-01-21T09:50:21.892Z,-1.12
2023-01-21T09:51:21.897Z,-1.17
2023-01-21T09:52:21.867Z,-1.12
2023-01-21T09:53:21.856Z,-1.17
2023-01-21T09:54:21.847Z,-1.17
2023-01-21T09:55:21.841Z,-1.09
2023-01-21T09:56:21.862Z,-1.07
2023-01-21T09:57:21.824Z,-0.97
2023-01-21T09:58:21.823Z,-0.96
2023-01-21T09:59:21.805Z,-0.99
2023-01-21T10:00:21.796Z,-0.97
2023-01-21T10:01:22.887Z,-0.86
2023-01-21T10:02:21.785Z,-0.93
2023-01-21T10:03:21.778Z,-0.80
2023-01-21T10:04:21.786Z,-0.82
2023-01-21T10:05:21.769Z,-0.91
2023-01-21T10:06:21.804Z,-0.80
2023-01-21T10:07:21.750Z,-0.82
2023-01-21T10:08:21.741Z,-0.67
2023-01-21T10:09:21.737Z,-0.72
2023-01-21T10:10:21.731Z,-0.74
2023-01-21T10:11:21.714Z,-0.65
2023-01-21T10:12:21.739Z,-0.65
2023-01-21T10:13:21.703Z,-0.57
2023-01-21T10:14:21.705Z,-0.61
2023-01-21T10:15:21.698Z,-0.50
2023-01-21T10:16:21.710Z,-0.50
2023-01-21T10:17:21.719Z,-0.56
2023-01-21T10:18:21.669Z,-0.43
2023-01-21T10:19:21.663Z,-0.50
2023-01-21T10:20:21.652Z,-0.62
2023-01-21T10:21:21.648Z,-0.61
2023-01-21T10:22:21.679Z,-0.61
2023-01-21T10:23:21.637Z,-0.57
2023-01-21T10:24:21.632Z,-0.52
2023-01-21T10:25:21.662Z,-0.50
2023-01-21T10:26:21.611Z,-0.52
2023-01-21T10:27:21.630Z,-0.36
2023-01-21T10:28:21.640Z,-0.46
2023-01-21T10:29:22.591Z,-0.36
2023-01-21T10:30:21.585Z,-0.29
2023-01-21T10:31:21.727Z,-0.31
2023-01-21T10:32:21.591Z,-0.35
2023-01-21T10:33:21.557Z,-0.25
2023-01-21T10:34:21.547Z,-0.21
2023-01-21T10:35:21.543Z,-0.17
2023-01-21T10:36:21.540Z,-0.21
2023-01-21T10:37:21.558Z,-0.23
2023-01-21T10:38:21.522Z,-0.13
2023-01-21T10:39:21.518Z,-0.02
2023-01-21T10:40:21.506Z,0.05
2023-01-21T10:41:21.529Z,0.11
2023-01-21T10:42:21.521Z,0.19
2023-01-21T10:43:21.488Z,0.16
2023-01-21T10:44:21.473Z,0.15
2023-01-21T10:45:21.478Z,0.19
2023-01-21T10:46:21.503Z,0.23
2023-01-21T10:47:21.511Z,0.34
2023-01-21T10:48:21.449Z,0.23
2023-01-21T10:49:21.628Z,0.34
2023-01-21T10:50:21.585Z,0.36
2023-01-21T10:51:21.741Z,0.34
2023-01-21T10:52:21.451Z,0.22
2023-01-21T10:53:21.421Z,0.34
2023-01-21T10:54:22.668Z,0.26
2023-01-21T10:55:22.399Z,0.41
2023-01-21T10:56:21.395Z,0.29
2023-01-21T10:57:21.417Z,0.37
2023-01-21T10:58:21.386Z,0.34
2023-01-21T10:59:21.367Z,0.36
2023-01-21T11:00:21.366Z,0.28
2023-01-21T11:01:21.392Z,0.34
2023-01-21T11:02:21.386Z,0.37
2023-01-21T11:03:21.350Z,0.31
2023-01-21T11:04:21.337Z,0.40
2023-01-21T11:05:21.334Z,0.29
2023-01-21T11:06:21.383Z,0.31
2023-01-21T11:07:21.451Z,0.36
2023-01-21T11:08:21.331Z,0.26
2023-01-21T11:09:21.308Z,0.21
2023-01-21T11:10:21.396Z,0.26
2023-01-21T11:11:21.399Z,0.28
2023-01-21T11:12:21.501Z,0.28
2023-01-21T11:13:21.267Z,0.40
2023-01-21T11:14:21.336Z,0.34
2023-01-21T11:15:22.261Z,0.34
2023-01-21T11:16:21.249Z,0.41
2023-01-21T11:17:21.272Z,0.44
2023-01-21T11:18:21.232Z,0.39
2023-01-21T11:19:21.223Z,0.55
2023-01-21T11:20:21.919Z,0.50
2023-01-21T11:21:22.213Z,0.47
2023-01-21T11:22:21.230Z,0.46
2023-01-21T11:23:21.198Z,0.70
2023-01-21T11:24:21.191Z,0.63
2023-01-21T11:25:21.184Z,0.65
2023-01-21T11:26:21.173Z,0.68
2023-01-21T11:27:21.204Z,0.69
2023-01-21T11:28:21.186Z,0.70
2023-01-21T11:29:21.156Z,0.62
2023-01-21T11:30:44.207Z,0.70
2023-01-21T11:31:23.183Z,0.81
2023-01-21T11:32:21.288Z,0.83
2023-01-21T11:33:21.155Z,0.83
2023-01-21T11:34:21.129Z,0.81
2023-01-21T11:35:21.113Z,0.77
2023-01-21T11:36:21.112Z,0.83
2023-01-21T11:37:21.127Z,0.80
2023-01-21T11:38:21.091Z,0.92
2023-01-21T11:39:21.081Z,0.87
2023-01-21T11:40:21.388Z,0.78
2023-01-21T11:41:22.084Z,0.76
2023-01-21T11:42:21.104Z,0.76
2023-01-21T11:43:21.056Z,0.66
2023-01-21T11:44:21.052Z,0.78
2023-01-21T11:45:21.086Z,0.66
2023-01-21T11:46:21.081Z,0.74
2023-01-21T11:47:22.085Z,0.81
2023-01-21T11:48:21.077Z,0.83
2023-01-21T11:49:21.106Z,0.78
2023-01-21T11:50:21.189Z,0.74
2023-01-21T11:51:21.041Z,0.81
2023-01-21T11:52:21.018Z,0.86
2023-01-21T11:53:20.986Z,0.73
2023-01-21T11:54:20.979Z,0.83
2023-01-21T11:55:21.043Z,0.80
2023-01-21T11:56:21.043Z,0.81
2023-01-21T11:57:20.973Z,0.83
2023-01-21T11:58:20.964Z,0.83
2023-01-21T11:59:20.978Z,0.87
2023-01-21T12:00:20.966Z,0.87
2023-01-21T12:01:20.935Z,0.83
2023-01-21T12:02:20.981Z,0.84
2023-01-21T12:03:20.936Z,0.80
2023-01-21T12:04:20.895Z,0.77
2023-01-21T12:05:20.893Z,0.87
2023-01-21T12:06:20.885Z,0.84
2023-01-21T12:07:20.877Z,0.83
2023-01-21T12:08:20.917Z,0.78
2023-01-21T12:09:20.873Z,0.83
2023-01-21T12:10:20.856Z,0.84
2023-01-21T12:11:20.843Z,0.91
2023-01-21T12:12:20.839Z,0.88
2023-01-21T12:13:20.861Z,0.88
2023-01-21T12:14:20.819Z,0.83
2023-01-21T12:15:20.814Z,0.87
2023-01-21T12:16:20.856Z,0.77
2023-01-21T12:17:20.794Z,0.92
2023-01-21T12:18:20.819Z,0.77
2023-01-21T12:19:20.786Z,0.80
2023-01-21T12:20:20.785Z,0.87
2023-01-21T12:21:20.767Z,0.84
2023-01-21T12:22:20.765Z,0.83
2023-01-21T12:23:20.777Z,0.81
2023-01-21T12:24:20.742Z,0.78
2023-01-21T12:25:20.740Z,0.77
2023-01-21T12:26:20.734Z,0.86
2023-01-21T12:27:20.722Z,0.80
2023-01-21T12:28:20.743Z,0.77
2023-01-21T12:29:20.832Z,0.80
2023-01-21T12:30:20.704Z,0.84
2023-01-21T12:31:20.798Z,0.83
2023-01-21T12:32:23.582Z,0.77
2023-01-21T12:33:20.702Z,0.81
2023-01-21T12:34:20.672Z,0.91
2023-01-21T12:35:20.661Z,0.86
2023-01-21T12:36:20.660Z,0.77
2023-01-21T12:37:20.655Z,0.81
2023-01-21T12:38:20.663Z,0.80
2023-01-21T12:39:20.634Z,0.83
2023-01-21T12:40:20.631Z,0.87
2023-01-21T12:41:20.623Z,0.92
2023-01-21T12:42:20.643Z,0.91
2023-01-21T12:43:20.631Z,0.91
2023-01-21T12:44:20.599Z,0.94
2023-01-21T12:45:20.597Z,0.94
2023-01-21T12:46:20.692Z,1.08
2023-01-21T12:47:20.583Z,0.96
2023-01-21T12:48:20.600Z,0.94
2023-01-21T12:49:20.565Z,1.08
2023-01-21T12:50:20.558Z,1.08
2023-01-21T12:51:20.605Z,0.96
2023-01-21T12:52:20.544Z,0.98
2023-01-21T12:53:20.570Z,0.98
2023-01-21T12:54:20.534Z,0.99
2023-01-21T12:55:20.799Z,0.94
2023-01-21T12:56:20.711Z,1.02
2023-01-21T12:57:20.507Z,1.05